»·PEaware :: G-GAMM KSBA-KBUR

G-GAMM :: KSBA-KBUR

FLIGHT INFORMATION

Flight Status: Arrived
Operator: Privately registered:
United Kingdom
More flights under this callsign
Pilot: Malcolm M. (20352)
Aircraft: CESSNA 172 SKYHAWK
(C172)
More flights by this aircraft type
Origin: KSBA Santa Barbara Mun
United States
Destination: KBUR Bob Hope-Burbank
United States
More flights between these airports :: More routes between these airports
Route: DCT
File this flight plan on PilotEdge
Remarks: Cat 8 Rating
Altitude:
(Current/Filed)
5,500ft
Speed:
(Current/Filed)
110kts
Departed: 03-Oct-18 03:22 PM
Arrived: 03-Oct-18 04:08 PM
Distance/Time
Traveled:
74nm/0:46
Distance/Time
To Go:
Arrived

Flight Plot

Page will automatically refresh every two minutes.


Map Options




Map Legend


Flown Route
Filed Route
Departure Airport
Arrival Airport
Navaid (VOR, NDB)
Fix

Horizontal Profiles

Position Reports

Time Latitude Longitude Heading Altitude Ground
Speed
03-Oct-18 14:40 34.433018 -119.834443 339 13ft 0kts
03-Oct-18 14:41 34.433019 -119.834444 339 13ft 0kts
03-Oct-18 14:42 34.433019 -119.834444 339 13ft 0kts
03-Oct-18 14:43 34.433020 -119.834444 339 13ft 0kts
03-Oct-18 14:44 34.433021 -119.834444 339 13ft 0kts
03-Oct-18 14:45 34.433021 -119.834445 339 13ft 0kts
03-Oct-18 14:46 34.433022 -119.834445 339 13ft 0kts
03-Oct-18 14:47 34.433022 -119.834445 339 13ft 0kts
03-Oct-18 14:48 34.433023 -119.834445 339 13ft 0kts
03-Oct-18 14:49 34.433023 -119.834446 339 13ft 0kts
03-Oct-18 14:50 34.433024 -119.834446 339 13ft 0kts
03-Oct-18 14:51 34.433025 -119.834446 339 13ft 0kts
03-Oct-18 14:52 34.433025 -119.834447 339 13ft 0kts
03-Oct-18 14:53 34.433026 -119.834447 339 13ft 0kts
03-Oct-18 14:54 34.433027 -119.834447 339 13ft 0kts
03-Oct-18 14:55 34.433027 -119.834447 339 13ft 0kts
03-Oct-18 14:56 34.433028 -119.834448 339 13ft 0kts
03-Oct-18 14:57 34.433028 -119.834448 339 13ft 0kts
03-Oct-18 14:58 34.433029 -119.834448 339 13ft 0kts
03-Oct-18 14:59 34.433030 -119.834448 339 13ft 0kts
03-Oct-18 15:00 34.433030 -119.834449 339 13ft 0kts
03-Oct-18 15:01 34.433031 -119.834449 339 13ft 0kts
03-Oct-18 15:02 34.433031 -119.834449 339 13ft 0kts
03-Oct-18 15:03 34.433032 -119.834450 339 13ft 0kts
03-Oct-18 15:04 34.433033 -119.834450 339 13ft 0kts
03-Oct-18 15:05 34.433033 -119.834450 339 13ft 0kts
03-Oct-18 15:06 34.433034 -119.834450 339 13ft 0kts
03-Oct-18 15:07 34.433034 -119.834451 339 13ft 0kts
03-Oct-18 15:08 34.433035 -119.834451 339 13ft 0kts
03-Oct-18 15:09 34.433036 -119.834451 339 13ft 0kts
03-Oct-18 15:10 34.433036 -119.834451 339 13ft 0kts
03-Oct-18 15:11 34.433037 -119.834452 339 13ft 0kts
03-Oct-18 15:12 34.433037 -119.834452 339 13ft 0kts
03-Oct-18 15:13 34.433038 -119.834452 339 13ft 0kts
03-Oct-18 15:14 34.433039 -119.834452 339 13ft 0kts
03-Oct-18 15:15 34.433039 -119.834453 339 13ft 0kts
03-Oct-18 15:16 34.433040 -119.834453 339 13ft 0kts
03-Oct-18 15:17 34.432317 -119.834793 246 13ft 11kts
03-Oct-18 15:18 34.430679 -119.839740 239 13ft 8kts
03-Oct-18 15:19 34.430334 -119.840932 253 13ft 0kts
03-Oct-18 15:20 34.430334 -119.840932 253 13ft 0kts
03-Oct-18 15:21 34.430334 -119.840933 253 13ft 0kts
03-Oct-18 15:22 34.430334 -119.840933 253 13ft 0kts
03-Oct-18 15:23 34.429930 -119.841357 165 13ft 2kts
03-Oct-18 15:24 34.414067 -119.836024 162 353ft 90kts
03-Oct-18 15:25 34.389255 -119.827399 162 1061ft 93kts
03-Oct-18 15:26 34.363660 -119.817547 162 1515ft 106kts
03-Oct-18 15:27 34.333292 -119.806814 162 1502ft 118kts
03-Oct-18 15:28 34.301312 -119.797047 162 1501ft 118kts
03-Oct-18 15:29 34.269599 -119.787017 162 1502ft 115kts
03-Oct-18 15:30 34.240617 -119.775940 162 1811ft 98kts
03-Oct-18 15:31 34.231900 -119.749701 81 2480ft 105kts
03-Oct-18 15:32 34.236792 -119.715482 73 3169ft 101kts
03-Oct-18 15:33 34.242157 -119.685937 73 3798ft 97kts
03-Oct-18 15:34 34.247652 -119.654410 73 4577ft 94kts
03-Oct-18 15:35 34.252759 -119.623940 73 5342ft 92kts
03-Oct-18 15:36 34.258831 -119.589226 73 5511ft 119kts
03-Oct-18 15:37 34.263456 -119.549754 80 5497ft 114kts
03-Oct-18 15:38 34.266591 -119.511898 80 5509ft 112kts
03-Oct-18 15:39 34.269779 -119.474207 80 5509ft 113kts
03-Oct-18 15:40 34.272996 -119.436208 80 5509ft 113kts
03-Oct-18 15:41 34.276166 -119.398945 80 5640ft 102kts
03-Oct-18 15:42 34.278378 -119.367797 80 6128ft 93kts
03-Oct-18 15:43 34.281203 -119.331484 80 5832ft 110kts
03-Oct-18 15:44 34.283694 -119.299028 80 5811ft 89kts
03-Oct-18 15:45 34.285804 -119.269325 80 5822ft 87kts
03-Oct-18 15:46 34.288674 -119.234343 80 5830ft 120kts
03-Oct-18 15:47 34.292519 -119.193432 80 5822ft 122kts
03-Oct-18 15:48 34.296350 -119.152451 80 5823ft 122kts
03-Oct-18 15:49 34.299556 -119.111304 86 5824ft 123kts
03-Oct-18 15:50 34.299525 -119.069826 87 5823ft 123kts
03-Oct-18 15:51 34.299395 -119.028270 87 5821ft 123kts
03-Oct-18 15:52 34.299208 -118.986780 87 5820ft 123kts
03-Oct-18 15:53 34.299008 -118.945363 87 5820ft 123kts
03-Oct-18 15:54 34.299321 -118.901190 87 5306ft 143kts
03-Oct-18 15:55 34.295799 -118.853417 123 4428ft 143kts
03-Oct-18 15:56 34.275423 -118.812589 113 3814ft 135kts
03-Oct-18 15:57 34.265507 -118.770803 100 3816ft 128kts
03-Oct-18 15:58 34.258698 -118.728685 99 3817ft 127kts
03-Oct-18 15:59 34.251610 -118.683339 99 3320ft 135kts
03-Oct-18 16:00 34.244904 -118.640391 99 3312ft 127kts
03-Oct-18 16:01 34.238331 -118.598308 99 3311ft 127kts
03-Oct-18 16:02 34.220385 -118.570924 195 3327ft 120kts
03-Oct-18 16:03 34.195181 -118.550868 102 3319ft 127kts
03-Oct-18 16:04 34.195487 -118.509191 83 3305ft 126kts
03-Oct-18 16:05 34.198087 -118.469204 83 3286ft 105kts
03-Oct-18 16:06 34.199730 -118.438971 83 3286ft 80kts
03-Oct-18 16:07 34.200942 -118.413247 83 3225ft 63kts
03-Oct-18 16:08 34.199329 -118.388035 86 1812ft 74kts
03-Oct-18 16:09 34.197867 -118.365001 100 781ft 49kts
03-Oct-18 16:10 34.197607 -118.360503 138 781ft 6kts
03-Oct-18 16:11 34.197210 -118.360292 179 781ft 0kts
03-Oct-18 16:12 34.197210 -118.360292 179 781ft 0kts
03-Oct-18 16:13 34.196689 -118.361532 270 781ft 14kts
03-Oct-18 16:14 34.195715 -118.363540 179 781ft 0kts
03-Oct-18 16:15 34.195711 -118.363540 179 781ft 0kts
03-Oct-18 16:16 34.195709 -118.363540 179 781ft 0kts

Navigation Log

Ident Type
1. KSBA Airport
2. KBUR Airport